LIRQ/FLR METAR and TAF weather

Enter ICAO airport designator
Station Type Date Time Source
LIRQ METAR 2021/01/17 18:50 UTC NOAA

LIRQ 171850Z VRB02KT 9999 FEW070 04/01 Q1016


Station Type Date Time Source
LIRQ Decoded METAR 2021/01/17 18:50 UTC NOAA

Firenze / Peretola, Italy (LIRQ) 43-48N 011-12E 38M
Jan 17, 2021 - 01:50 PM EST / 2021.01.17 1850 UTC
Wind: Variable at 2 MPH (2 KT):0
Visibility: greater than 7 mile(s):0
Sky conditions: mostly clear
Temperature: 39 F (4 C)
Dew Point: 33 F (1 C)
Relative Humidity: 80%
Pressure (altimeter): 30.00 in. Hg (1016 hPa)
ob: LIRQ 171850Z VRB02KT 9999 FEW070 04/01 Q1016
cycle: 19

Station Type Date Time Source
LIRQ TAF 2021/01/17 18:22 UTC NOAA

TAF LIRQ 171700Z 1718/1818 VRB05KT 9999 SCT040

Example: see airport list